sensor_id;sensor_type;location;lat;lon;timestamp;P1;durP1;ratioP1;P2;durP2;ratioP2
33413;SDS011;60055;41.884;12.534;2023-08-21T00:01:56;9.63;;;8.60;;
33413;SDS011;60055;41.884;12.534;2023-08-21T00:04:21;12.40;;;8.80;;
33413;SDS011;60055;41.884;12.534;2023-08-21T00:06:47;11.48;;;8.70;;
33413;SDS011;60055;41.884;12.534;2023-08-21T00:09:12;11.82;;;9.13;;
33413;SDS011;60055;41.884;12.534;2023-08-21T00:11:38;11.38;;;8.77;;
33413;SDS011;60055;41.884;12.534;2023-08-21T00:14:03;10.93;;;8.32;;
33413;SDS011;60055;41.884;12.534;2023-08-21T00:16:29;10.52;;;8.98;;
33413;SDS011;60055;41.884;12.534;2023-08-21T00:18:54;11.43;;;9.10;;
33413;SDS011;60055;41.884;12.534;2023-08-21T00:21:20;13.27;;;9.00;;
33413;SDS011;60055;41.884;12.534;2023-08-21T00:23:46;10.10;;;8.82;;
33413;SDS011;60055;41.884;12.534;2023-08-21T00:26:11;13.50;;;9.52;;
33413;SDS011;60055;41.884;12.534;2023-08-21T00:28:37;11.68;;;8.73;;
33413;SDS011;60055;41.884;12.534;2023-08-21T00:31:03;13.02;;;8.90;;
33413;SDS011;60055;41.884;12.534;2023-08-21T00:33:31;11.90;;;8.98;;
33413;SDS011;60055;41.884;12.534;2023-08-21T00:35:57;12.43;;;9.20;;
33413;SDS011;60055;41.884;12.534;2023-08-21T00:38:23;11.88;;;8.98;;
33413;SDS011;60055;41.884;12.534;2023-08-21T00:40:49;10.35;;;9.15;;
33413;SDS011;60055;41.884;12.534;2023-08-21T00:43:14;11.57;;;9.63;;
33413;SDS011;60055;41.884;12.534;2023-08-21T00:45:41;13.90;;;9.18;;
33413;SDS011;60055;41.884;12.534;2023-08-21T00:48:08;10.85;;;9.32;;
33413;SDS011;60055;41.884;12.534;2023-08-21T00:50:35;11.90;;;9.55;;
33413;SDS011;60055;41.884;12.534;2023-08-21T00:53:01;13.57;;;9.80;;
33413;SDS011;60055;41.884;12.534;2023-08-21T00:55:28;13.52;;;9.77;;
33413;SDS011;60055;41.884;12.534;2023-08-21T00:57:54;12.45;;;9.50;;
33413;SDS011;60055;41.884;12.534;2023-08-21T01:00:20;12.02;;;9.50;;
33413;SDS011;60055;41.884;12.534;2023-08-21T01:02:47;12.43;;;9.73;;
33413;SDS011;60055;41.884;12.534;2023-08-21T01:05:12;11.02;;;9.70;;
33413;SDS011;60055;41.884;12.534;2023-08-21T01:07:40;11.57;;;9.63;;
33413;SDS011;60055;41.884;12.534;2023-08-21T01:10:16;10.65;;;9.27;;
33413;SDS011;60055;41.884;12.534;2023-08-21T01:15:21;12.32;;;9.77;;
33413;SDS011;60055;41.884;12.534;2023-08-21T01:17:48;11.95;;;10.27;;
33413;SDS011;60055;41.884;12.534;2023-08-21T01:20:14;15.10;;;9.93;;
33413;SDS011;60055;41.884;12.534;2023-08-21T01:22:40;12.05;;;9.68;;
33413;SDS011;60055;41.884;12.534;2023-08-21T01:25:11;10.75;;;9.65;;
33413;SDS011;60055;41.884;12.534;2023-08-21T01:27:36;11.98;;;9.82;;
33413;SDS011;60055;41.884;12.534;2023-08-21T01:30:03;10.93;;;9.60;;
33413;SDS011;60055;41.884;12.534;2023-08-21T01:35:13;12.13;;;10.30;;
33413;SDS011;60055;41.884;12.534;2023-08-21T01:37:40;11.50;;;10.13;;
33413;SDS011;60055;41.884;12.534;2023-08-21T01:40:07;12.35;;;10.25;;
33413;SDS011;60055;41.884;12.534;2023-08-21T01:42:33;11.57;;;9.73;;
33413;SDS011;60055;41.884;12.534;2023-08-21T01:44:58;13.27;;;10.27;;
33413;SDS011;60055;41.884;12.534;2023-08-21T01:47:24;13.68;;;10.15;;
33413;SDS011;60055;41.884;12.534;2023-08-21T01:49:49;12.73;;;10.10;;
33413;SDS011;60055;41.884;12.534;2023-08-21T01:52:18;14.18;;;10.15;;
33413;SDS011;60055;41.884;12.534;2023-08-21T01:54:44;16.45;;;11.10;;
33413;SDS011;60055;41.884;12.534;2023-08-21T01:57:09;12.57;;;10.02;;
33413;SDS011;60055;41.884;12.534;2023-08-21T01:59:35;14.40;;;10.70;;
33413;SDS011;60055;41.884;12.534;2023-08-21T02:02:00;11.68;;;10.27;;
33413;SDS011;60055;41.884;12.534;2023-08-21T02:04:26;13.32;;;10.85;;
33413;SDS011;60055;41.884;12.534;2023-08-21T02:06:51;17.40;;;10.90;;
33413;SDS011;60055;41.884;12.534;2023-08-21T02:09:17;12.90;;;10.77;;
33413;SDS011;60055;41.884;12.534;2023-08-21T02:11:42;13.52;;;11.38;;
33413;SDS011;60055;41.884;12.534;2023-08-21T02:14:07;15.65;;;11.23;;
33413;SDS011;60055;41.884;12.534;2023-08-21T02:16:33;12.85;;;11.15;;
33413;SDS011;60055;41.884;12.534;2023-08-21T02:18:58;12.85;;;10.63;;
33413;SDS011;60055;41.884;12.534;2023-08-21T02:21:24;12.63;;;11.20;;
33413;SDS011;60055;41.884;12.534;2023-08-21T02:23:50;14.07;;;11.00;;
33413;SDS011;60055;41.884;12.534;2023-08-21T02:26:15;14.77;;;11.63;;
33413;SDS011;60055;41.884;12.534;2023-08-21T02:28:41;15.90;;;11.30;;
33413;SDS011;60055;41.884;12.534;2023-08-21T02:31:11;14.05;;;10.80;;
33413;SDS011;60055;41.884;12.534;2023-08-21T02:33:36;14.02;;;11.07;;
33413;SDS011;60055;41.884;12.534;2023-08-21T02:36:02;14.40;;;11.00;;
33413;SDS011;60055;41.884;12.534;2023-08-21T02:38:28;14.77;;;11.45;;
33413;SDS011;60055;41.884;12.534;2023-08-21T02:40:54;15.68;;;11.88;;
33413;SDS011;60055;41.884;12.534;2023-08-21T02:43:19;12.52;;;11.05;;
33413;SDS011;60055;41.884;12.534;2023-08-21T02:45:45;15.30;;;11.40;;
33413;SDS011;60055;41.884;12.534;2023-08-21T02:48:10;14.85;;;12.02;;
33413;SDS011;60055;41.884;12.534;2023-08-21T02:50:36;15.75;;;11.73;;
33413;SDS011;60055;41.884;12.534;2023-08-21T02:53:01;14.65;;;11.77;;
33413;SDS011;60055;41.884;12.534;2023-08-21T02:55:27;16.17;;;11.93;;
33413;SDS011;60055;41.884;12.534;2023-08-21T02:57:52;17.13;;;12.30;;
33413;SDS011;60055;41.884;12.534;2023-08-21T03:00:17;13.02;;;11.63;;
33413;SDS011;60055;41.884;12.534;2023-08-21T03:02:43;13.98;;;11.85;;
33413;SDS011;60055;41.884;12.534;2023-08-21T03:05:09;16.77;;;12.02;;
33413;SDS011;60055;41.884;12.534;2023-08-21T03:07:35;13.52;;;11.98;;
33413;SDS011;60055;41.884;12.534;2023-08-21T03:10:00;15.07;;;12.27;;
33413;SDS011;60055;41.884;12.534;2023-08-21T03:12:27;15.32;;;12.82;;
33413;SDS011;60055;41.884;12.534;2023-08-21T03:14:53;14.05;;;11.85;;
33413;SDS011;60055;41.884;12.534;2023-08-21T03:17:18;14.20;;;11.73;;
33413;SDS011;60055;41.884;12.534;2023-08-21T03:19:44;15.65;;;12.52;;
33413;SDS011;60055;41.884;12.534;2023-08-21T03:22:09;15.40;;;12.15;;
33413;SDS011;60055;41.884;12.534;2023-08-21T03:24:35;14.80;;;12.18;;
33413;SDS011;60055;41.884;12.534;2023-08-21T03:27:01;14.13;;;12.00;;
33413;SDS011;60055;41.884;12.534;2023-08-21T03:29:27;15.80;;;11.98;;
33413;SDS011;60055;41.884;12.534;2023-08-21T03:31:53;15.05;;;12.80;;
33413;SDS011;60055;41.884;12.534;2023-08-21T03:34:19;14.25;;;12.23;;
33413;SDS011;60055;41.884;12.534;2023-08-21T03:36:45;15.65;;;12.55;;
33413;SDS011;60055;41.884;12.534;2023-08-21T03:39:10;14.95;;;12.30;;
33413;SDS011;60055;41.884;12.534;2023-08-21T03:41:36;16.45;;;12.57;;
33413;SDS011;60055;41.884;12.534;2023-08-21T03:44:01;18.67;;;12.23;;
33413;SDS011;60055;41.884;12.534;2023-08-21T03:46:27;17.48;;;12.23;;
33413;SDS011;60055;41.884;12.534;2023-08-21T03:48:52;18.60;;;13.50;;
33413;SDS011;60055;41.884;12.534;2023-08-21T03:51:18;16.27;;;12.65;;
33413;SDS011;60055;41.884;12.534;2023-08-21T03:53:43;17.40;;;12.50;;
33413;SDS011;60055;41.884;12.534;2023-08-21T03:56:08;17.90;;;12.48;;
33413;SDS011;60055;41.884;12.534;2023-08-21T03:58:34;16.80;;;11.90;;
33413;SDS011;60055;41.884;12.534;2023-08-21T04:01:00;15.40;;;12.95;;
33413;SDS011;60055;41.884;12.534;2023-08-21T04:03:25;14.57;;;12.50;;
33413;SDS011;60055;41.884;12.534;2023-08-21T04:05:52;15.63;;;12.88;;
33413;SDS011;60055;41.884;12.534;2023-08-21T04:08:19;19.65;;;12.30;;
33413;SDS011;60055;41.884;12.534;2023-08-21T04:10:44;15.23;;;11.73;;
33413;SDS011;60055;41.884;12.534;2023-08-21T04:13:10;14.75;;;12.05;;
33413;SDS011;60055;41.884;12.534;2023-08-21T04:15:35;19.48;;;12.18;;
33413;SDS011;60055;41.884;12.534;2023-08-21T04:18:01;17.20;;;12.50;;
33413;SDS011;60055;41.884;12.534;2023-08-21T04:20:26;20.98;;;12.73;;
33413;SDS011;60055;41.884;12.534;2023-08-21T04:22:52;14.27;;;12.20;;
33413;SDS011;60055;41.884;12.534;2023-08-21T04:25:17;16.00;;;11.77;;
33413;SDS011;60055;41.884;12.534;2023-08-21T04:27:43;16.23;;;12.00;;
33413;SDS011;60055;41.884;12.534;2023-08-21T04:30:09;14.45;;;11.43;;
33413;SDS011;60055;41.884;12.534;2023-08-21T04:32:35;16.15;;;12.55;;
33413;SDS011;60055;41.884;12.534;2023-08-21T04:35:01;15.02;;;12.68;;
33413;SDS011;60055;41.884;12.534;2023-08-21T04:37:26;17.80;;;13.50;;
33413;SDS011;60055;41.884;12.534;2023-08-21T04:39:54;18.13;;;14.05;;
33413;SDS011;60055;41.884;12.534;2023-08-21T04:42:20;16.80;;;12.30;;
33413;SDS011;60055;41.884;12.534;2023-08-21T04:44:46;16.33;;;11.88;;
33413;SDS011;60055;41.884;12.534;2023-08-21T04:47:21;18.33;;;12.38;;
33413;SDS011;60055;41.884;12.534;2023-08-21T04:49:51;14.93;;;11.88;;
33413;SDS011;60055;41.884;12.534;2023-08-21T04:52:16;14.82;;;11.75;;
33413;SDS011;60055;41.884;12.534;2023-08-21T04:54:42;14.18;;;12.00;;
33413;SDS011;60055;41.884;12.534;2023-08-21T04:57:08;13.48;;;12.05;;
33413;SDS011;60055;41.884;12.534;2023-08-21T04:59:34;16.35;;;11.88;;
33413;SDS011;60055;41.884;12.534;2023-08-21T05:02:00;15.75;;;12.00;;
33413;SDS011;60055;41.884;12.534;2023-08-21T05:04:25;17.40;;;12.02;;
33413;SDS011;60055;41.884;12.534;2023-08-21T05:06:51;17.83;;;12.50;;
33413;SDS011;60055;41.884;12.534;2023-08-21T05:09:17;14.50;;;10.88;;
33413;SDS011;60055;41.884;12.534;2023-08-21T05:11:43;19.70;;;12.38;;
33413;SDS011;60055;41.884;12.534;2023-08-21T05:14:08;17.92;;;11.32;;
33413;SDS011;60055;41.884;12.534;2023-08-21T05:16:33;12.40;;;10.60;;
33413;SDS011;60055;41.884;12.534;2023-08-21T05:18:59;14.45;;;11.40;;
33413;SDS011;60055;41.884;12.534;2023-08-21T05:21:25;14.75;;;10.95;;
33413;SDS011;60055;41.884;12.534;2023-08-21T05:23:50;14.07;;;10.52;;
33413;SDS011;60055;41.884;12.534;2023-08-21T05:26:16;18.48;;;11.00;;
33413;SDS011;60055;41.884;12.534;2023-08-21T05:28:41;18.90;;;12.30;;
33413;SDS011;60055;41.884;12.534;2023-08-21T05:31:06;15.77;;;11.13;;
33413;SDS011;60055;41.884;12.534;2023-08-21T05:33:32;14.93;;;11.80;;
33413;SDS011;60055;41.884;12.534;2023-08-21T05:35:57;21.23;;;10.88;;
33413;SDS011;60055;41.884;12.534;2023-08-21T05:38:23;13.90;;;10.68;;
33413;SDS011;60055;41.884;12.534;2023-08-21T05:40:48;13.60;;;10.43;;
33413;SDS011;60055;41.884;12.534;2023-08-21T05:43:14;14.55;;;10.75;;
33413;SDS011;60055;41.884;12.534;2023-08-21T05:45:41;13.60;;;10.27;;
33413;SDS011;60055;41.884;12.534;2023-08-21T05:48:06;17.05;;;10.80;;
33413;SDS011;60055;41.884;12.534;2023-08-21T05:50:32;16.80;;;11.13;;
33413;SDS011;60055;41.884;12.534;2023-08-21T05:52:57;13.48;;;11.07;;
33413;SDS011;60055;41.884;12.534;2023-08-21T05:55:23;13.82;;;10.07;;
33413;SDS011;60055;41.884;12.534;2023-08-21T05:57:48;12.55;;;10.45;;
33413;SDS011;60055;41.884;12.534;2023-08-21T06:00:14;15.60;;;9.95;;
33413;SDS011;60055;41.884;12.534;2023-08-21T06:02:40;22.33;;;10.20;;
33413;SDS011;60055;41.884;12.534;2023-08-21T06:05:08;14.40;;;10.00;;
33413;SDS011;60055;41.884;12.534;2023-08-21T06:07:34;14.70;;;9.65;;
33413;SDS011;60055;41.884;12.534;2023-08-21T06:09:59;16.02;;;10.00;;
33413;SDS011;60055;41.884;12.534;2023-08-21T06:12:25;14.07;;;9.57;;
33413;SDS011;60055;41.884;12.534;2023-08-21T06:14:50;12.85;;;9.05;;
33413;SDS011;60055;41.884;12.534;2023-08-21T06:17:16;14.63;;;9.63;;
33413;SDS011;60055;41.884;12.534;2023-08-21T06:19:41;14.23;;;9.55;;
33413;SDS011;60055;41.884;12.534;2023-08-21T06:22:07;13.82;;;9.57;;
33413;SDS011;60055;41.884;12.534;2023-08-21T06:24:33;13.55;;;9.25;;
33413;SDS011;60055;41.884;12.534;2023-08-21T06:26:58;13.50;;;9.45;;
33413;SDS011;60055;41.884;12.534;2023-08-21T06:29:24;13.65;;;9.02;;
33413;SDS011;60055;41.884;12.534;2023-08-21T06:31:49;11.25;;;9.10;;
33413;SDS011;60055;41.884;12.534;2023-08-21T06:34:15;15.35;;;9.50;;
33413;SDS011;60055;41.884;12.534;2023-08-21T06:36:40;14.70;;;9.40;;
33413;SDS011;60055;41.884;12.534;2023-08-21T06:39:06;16.90;;;9.82;;
33413;SDS011;60055;41.884;12.534;2023-08-21T06:41:31;13.02;;;9.35;;
33413;SDS011;60055;41.884;12.534;2023-08-21T06:43:57;11.88;;;9.23;;
33413;SDS011;60055;41.884;12.534;2023-08-21T06:46:23;14.68;;;9.80;;
33413;SDS011;60055;41.884;12.534;2023-08-21T06:48:49;17.52;;;9.73;;
33413;SDS011;60055;41.884;12.534;2023-08-21T06:51:15;11.95;;;9.43;;
33413;SDS011;60055;41.884;12.534;2023-08-21T06:53:41;11.68;;;9.18;;
33413;SDS011;60055;41.884;12.534;2023-08-21T06:56:07;12.98;;;8.85;;
33413;SDS011;60055;41.884;12.534;2023-08-21T06:58:32;10.57;;;8.82;;
33413;SDS011;60055;41.884;12.534;2023-08-21T07:00:59;15.35;;;9.07;;
33413;SDS011;60055;41.884;12.534;2023-08-21T07:03:25;10.43;;;8.95;;
33413;SDS011;60055;41.884;12.534;2023-08-21T07:05:54;14.93;;;9.07;;
33413;SDS011;60055;41.884;12.534;2023-08-21T07:08:23;11.55;;;9.00;;
33413;SDS011;60055;41.884;12.534;2023-08-21T07:10:49;15.50;;;8.60;;
33413;SDS011;60055;41.884;12.534;2023-08-21T07:13:15;16.70;;;10.50;;
33413;SDS011;60055;41.884;12.534;2023-08-21T07:15:41;12.68;;;8.75;;
33413;SDS011;60055;41.884;12.534;2023-08-21T07:18:06;16.70;;;9.13;;
33413;SDS011;60055;41.884;12.534;2023-08-21T07:20:32;15.55;;;9.25;;
33413;SDS011;60055;41.884;12.534;2023-08-21T07:22:58;17.17;;;9.52;;
33413;SDS011;60055;41.884;12.534;2023-08-21T07:25:24;15.45;;;8.70;;
33413;SDS011;60055;41.884;12.534;2023-08-21T07:27:50;13.52;;;8.55;;
33413;SDS011;60055;41.884;12.534;2023-08-21T07:30:18;13.75;;;8.70;;
33413;SDS011;60055;41.884;12.534;2023-08-21T07:32:45;13.98;;;8.38;;
33413;SDS011;60055;41.884;12.534;2023-08-21T07:35:10;13.40;;;8.82;;
33413;SDS011;60055;41.884;12.534;2023-08-21T07:37:36;11.45;;;8.10;;
33413;SDS011;60055;41.884;12.534;2023-08-21T07:40:02;17.90;;;8.85;;
33413;SDS011;60055;41.884;12.534;2023-08-21T07:42:27;11.52;;;8.80;;
33413;SDS011;60055;41.884;12.534;2023-08-21T07:44:53;12.15;;;8.50;;
33413;SDS011;60055;41.884;12.534;2023-08-21T07:47:18;14.38;;;9.02;;
33413;SDS011;60055;41.884;12.534;2023-08-21T07:49:44;13.07;;;8.00;;
33413;SDS011;60055;41.884;12.534;2023-08-21T07:52:09;12.32;;;8.30;;
33413;SDS011;60055;41.884;12.534;2023-08-21T07:54:34;16.45;;;9.23;;
33413;SDS011;60055;41.884;12.534;2023-08-21T07:57:00;14.68;;;8.23;;
33413;SDS011;60055;41.884;12.534;2023-08-21T07:59:26;13.85;;;8.40;;
33413;SDS011;60055;41.884;12.534;2023-08-21T08:01:51;13.32;;;7.80;;
33413;SDS011;60055;41.884;12.534;2023-08-21T08:04:20;11.45;;;8.02;;
33413;SDS011;60055;41.884;12.534;2023-08-21T08:06:45;10.55;;;8.10;;
33413;SDS011;60055;41.884;12.534;2023-08-21T08:09:11;15.48;;;8.13;;
33413;SDS011;60055;41.884;12.534;2023-08-21T08:11:36;12.80;;;7.97;;
33413;SDS011;60055;41.884;12.534;2023-08-21T08:14:02;15.27;;;7.75;;
33413;SDS011;60055;41.884;12.534;2023-08-21T08:16:27;13.75;;;7.78;;
33413;SDS011;60055;41.884;12.534;2023-08-21T08:18:53;10.00;;;7.10;;
33413;SDS011;60055;41.884;12.534;2023-08-21T08:21:18;9.15;;;7.75;;
33413;SDS011;60055;41.884;12.534;2023-08-21T08:23:44;11.30;;;7.88;;
33413;SDS011;60055;41.884;12.534;2023-08-21T08:26:10;13.65;;;8.02;;
33413;SDS011;60055;41.884;12.534;2023-08-21T08:28:35;11.55;;;7.85;;
33413;SDS011;60055;41.884;12.534;2023-08-21T08:31:01;10.63;;;7.85;;
33413;SDS011;60055;41.884;12.534;2023-08-21T08:33:27;10.75;;;7.57;;
33413;SDS011;60055;41.884;12.534;2023-08-21T08:35:52;10.95;;;8.13;;
33413;SDS011;60055;41.884;12.534;2023-08-21T08:38:18;13.23;;;7.30;;
33413;SDS011;60055;41.884;12.534;2023-08-21T08:40:45;11.02;;;7.75;;
33413;SDS011;60055;41.884;12.534;2023-08-21T08:43:12;11.73;;;8.07;;
33413;SDS011;60055;41.884;12.534;2023-08-21T08:45:40;11.15;;;8.15;;
33413;SDS011;60055;41.884;12.534;2023-08-21T08:48:06;10.23;;;7.47;;
33413;SDS011;60055;41.884;12.534;2023-08-21T08:50:33;11.63;;;8.05;;
33413;SDS011;60055;41.884;12.534;2023-08-21T08:52:59;12.00;;;8.10;;
33413;SDS011;60055;41.884;12.534;2023-08-21T08:55:25;13.50;;;7.47;;
33413;SDS011;60055;41.884;12.534;2023-08-21T08:57:55;11.05;;;8.00;;
33413;SDS011;60055;41.884;12.534;2023-08-21T09:00:21;12.68;;;7.70;;
33413;SDS011;60055;41.884;12.534;2023-08-21T09:02:47;13.05;;;7.95;;
33413;SDS011;60055;41.884;12.534;2023-08-21T09:05:13;9.88;;;7.88;;
33413;SDS011;60055;41.884;12.534;2023-08-21T09:07:38;13.93;;;8.20;;
33413;SDS011;60055;41.884;12.534;2023-08-21T09:10:04;11.43;;;7.55;;
33413;SDS011;60055;41.884;12.534;2023-08-21T09:12:37;9.77;;;6.97;;
33413;SDS011;60055;41.884;12.534;2023-08-21T09:15:07;10.90;;;7.45;;
33413;SDS011;60055;41.884;12.534;2023-08-21T09:17:33;10.10;;;7.20;;
33413;SDS011;60055;41.884;12.534;2023-08-21T09:20:07;8.98;;;7.00;;
33413;SDS011;60055;41.884;12.534;2023-08-21T09:22:35;10.90;;;7.50;;
33413;SDS011;60055;41.884;12.534;2023-08-21T09:25:01;11.32;;;7.10;;
33413;SDS011;60055;41.884;12.534;2023-08-21T09:27:32;9.32;;;6.85;;
33413;SDS011;60055;41.884;12.534;2023-08-21T09:30:03;12.15;;;7.07;;
33413;SDS011;60055;41.884;12.534;2023-08-21T09:32:53;13.00;;;7.07;;
33413;SDS011;60055;41.884;12.534;2023-08-21T09:35:20;10.55;;;7.47;;
33413;SDS011;60055;41.884;12.534;2023-08-21T09:37:46;13.43;;;6.65;;
33413;SDS011;60055;41.884;12.534;2023-08-21T09:40:12;10.05;;;6.65;;
33413;SDS011;60055;41.884;12.534;2023-08-21T09:42:39;9.13;;;7.03;;
33413;SDS011;60055;41.884;12.534;2023-08-21T09:45:04;11.40;;;6.65;;
33413;SDS011;60055;41.884;12.534;2023-08-21T09:47:30;11.18;;;6.80;;
33413;SDS011;60055;41.884;12.534;2023-08-21T09:49:56;7.72;;;6.38;;
33413;SDS011;60055;41.884;12.534;2023-08-21T09:52:23;12.23;;;6.80;;
33413;SDS011;60055;41.884;12.534;2023-08-21T09:54:49;13.05;;;6.70;;
33413;SDS011;60055;41.884;12.534;2023-08-21T09:57:18;9.40;;;6.25;;
33413;SDS011;60055;41.884;12.534;2023-08-21T09:59:46;9.70;;;6.35;;
33413;SDS011;60055;41.884;12.534;2023-08-21T10:02:14;10.15;;;6.35;;
33413;SDS011;60055;41.884;12.534;2023-08-21T10:04:40;9.82;;;6.28;;
33413;SDS011;60055;41.884;12.534;2023-08-21T10:07:10;6.65;;;5.72;;
33413;SDS011;60055;41.884;12.534;2023-08-21T10:09:38;8.60;;;6.32;;
33413;SDS011;60055;41.884;12.534;2023-08-21T10:12:08;12.60;;;6.15;;
33413;SDS011;60055;41.884;12.534;2023-08-21T10:14:34;8.07;;;5.57;;
33413;SDS011;60055;41.884;12.534;2023-08-21T10:17:01;8.63;;;6.07;;
33413;SDS011;60055;41.884;12.534;2023-08-21T10:19:31;8.45;;;6.00;;
33413;SDS011;60055;41.884;12.534;2023-08-21T10:21:57;6.43;;;5.55;;
33413;SDS011;60055;41.884;12.534;2023-08-21T10:24:41;8.30;;;4.95;;
33413;SDS011;60055;41.884;12.534;2023-08-21T10:29:33;9.65;;;5.25;;
33413;SDS011;60055;41.884;12.534;2023-08-21T10:31:59;12.43;;;5.63;;
33413;SDS011;60055;41.884;12.534;2023-08-21T10:34:34;9.85;;;6.20;;
33413;SDS011;60055;41.884;12.534;2023-08-21T10:37:08;7.60;;;5.90;;
33413;SDS011;60055;41.884;12.534;2023-08-21T10:39:37;10.48;;;6.00;;
33413;SDS011;60055;41.884;12.534;2023-08-21T10:47:18;7.10;;;5.28;;
33413;SDS011;60055;41.884;12.534;2023-08-21T10:49:44;8.48;;;5.80;;
33413;SDS011;60055;41.884;12.534;2023-08-21T10:52:10;10.85;;;5.93;;
33413;SDS011;60055;41.884;12.534;2023-08-21T10:54:43;8.25;;;5.53;;
33413;SDS011;60055;41.884;12.534;2023-08-21T10:57:09;7.57;;;6.00;;
33413;SDS011;60055;41.884;12.534;2023-08-21T10:59:35;10.88;;;5.60;;
33413;SDS011;60055;41.884;12.534;2023-08-21T11:02:00;8.00;;;6.07;;
33413;SDS011;60055;41.884;12.534;2023-08-21T11:04:26;11.60;;;6.10;;
33413;SDS011;60055;41.884;12.534;2023-08-21T11:06:51;9.55;;;5.72;;
33413;SDS011;60055;41.884;12.534;2023-08-21T11:09:17;9.25;;;5.80;;
33413;SDS011;60055;41.884;12.534;2023-08-21T11:11:43;8.93;;;5.53;;
33413;SDS011;60055;41.884;12.534;2023-08-21T11:14:09;6.50;;;5.80;;
33413;SDS011;60055;41.884;12.534;2023-08-21T11:16:34;6.43;;;4.65;;
33413;SDS011;60055;41.884;12.534;2023-08-21T11:19:03;7.45;;;4.93;;
33413;SDS011;60055;41.884;12.534;2023-08-21T11:21:29;6.22;;;4.95;;
33413;SDS011;60055;41.884;12.534;2023-08-21T11:23:55;7.15;;;5.00;;
33413;SDS011;60055;41.884;12.534;2023-08-21T11:26:20;8.48;;;5.25;;
33413;SDS011;60055;41.884;12.534;2023-08-21T11:28:46;6.47;;;4.93;;
33413;SDS011;60055;41.884;12.534;2023-08-21T11:31:12;9.30;;;4.70;;
33413;SDS011;60055;41.884;12.534;2023-08-21T11:33:38;8.25;;;4.45;;
33413;SDS011;60055;41.884;12.534;2023-08-21T11:36:06;8.77;;;4.93;;
33413;SDS011;60055;41.884;12.534;2023-08-21T11:38:32;5.55;;;4.97;;
33413;SDS011;60055;41.884;12.534;2023-08-21T11:40:58;9.15;;;5.30;;
33413;SDS011;60055;41.884;12.534;2023-08-21T11:46:04;6.53;;;4.75;;
33413;SDS011;60055;41.884;12.534;2023-08-21T11:48:30;8.50;;;5.05;;
33413;SDS011;60055;41.884;12.534;2023-08-21T11:50:55;6.72;;;4.57;;
33413;SDS011;60055;41.884;12.534;2023-08-21T11:55:59;7.80;;;4.13;;
33413;SDS011;60055;41.884;12.534;2023-08-21T11:58:26;6.47;;;4.32;;
33413;SDS011;60055;41.884;12.534;2023-08-21T12:00:53;7.45;;;5.00;;
33413;SDS011;60055;41.884;12.534;2023-08-21T12:03:19;6.50;;;4.30;;
33413;SDS011;60055;41.884;12.534;2023-08-21T12:05:44;7.93;;;4.43;;
33413;SDS011;60055;41.884;12.534;2023-08-21T12:08:10;8.27;;;4.45;;
33413;SDS011;60055;41.884;12.534;2023-08-21T12:10:35;7.78;;;4.30;;
33413;SDS011;60055;41.884;12.534;2023-08-21T12:13:01;11.25;;;4.75;;
33413;SDS011;60055;41.884;12.534;2023-08-21T12:15:26;8.75;;;4.90;;
33413;SDS011;60055;41.884;12.534;2023-08-21T12:17:52;7.13;;;4.82;;
33413;SDS011;60055;41.884;12.534;2023-08-21T12:20:17;9.00;;;4.70;;
33413;SDS011;60055;41.884;12.534;2023-08-21T12:22:43;6.80;;;4.60;;
33413;SDS011;60055;41.884;12.534;2023-08-21T12:25:08;13.68;;;4.53;;
33413;SDS011;60055;41.884;12.534;2023-08-21T12:27:35;6.32;;;4.40;;
33413;SDS011;60055;41.884;12.534;2023-08-21T12:30:01;5.72;;;4.43;;
33413;SDS011;60055;41.884;12.534;2023-08-21T12:32:26;10.20;;;4.32;;
33413;SDS011;60055;41.884;12.534;2023-08-21T12:34:52;15.50;;;5.07;;
33413;SDS011;60055;41.884;12.534;2023-08-21T12:37:17;5.35;;;4.50;;
33413;SDS011;60055;41.884;12.534;2023-08-21T12:39:43;7.25;;;4.65;;
33413;SDS011;60055;41.884;12.534;2023-08-21T12:42:08;9.15;;;6.38;;
33413;SDS011;60055;41.884;12.534;2023-08-21T12:44:34;7.38;;;4.50;;
33413;SDS011;60055;41.884;12.534;2023-08-21T12:46:59;6.45;;;4.40;;
33413;SDS011;60055;41.884;12.534;2023-08-21T12:49:25;9.75;;;4.60;;
33413;SDS011;60055;41.884;12.534;2023-08-21T12:51:51;6.68;;;4.50;;
33413;SDS011;60055;41.884;12.534;2023-08-21T12:54:16;6.65;;;3.88;;
33413;SDS011;60055;41.884;12.534;2023-08-21T12:56:42;6.43;;;4.15;;
33413;SDS011;60055;41.884;12.534;2023-08-21T12:59:07;7.28;;;4.57;;
33413;SDS011;60055;41.884;12.534;2023-08-21T13:01:33;8.65;;;4.30;;
33413;SDS011;60055;41.884;12.534;2023-08-21T13:03:59;6.57;;;4.13;;
33413;SDS011;60055;41.884;12.534;2023-08-21T13:06:25;10.30;;;4.05;;
33413;SDS011;60055;41.884;12.534;2023-08-21T13:08:51;9.60;;;4.20;;
33413;SDS011;60055;41.884;12.534;2023-08-21T13:11:17;6.32;;;4.25;;
33413;SDS011;60055;41.884;12.534;2023-08-21T13:13:43;8.02;;;4.50;;
33413;SDS011;60055;41.884;12.534;2023-08-21T13:16:08;5.88;;;4.30;;
33413;SDS011;60055;41.884;12.534;2023-08-21T13:18:34;8.50;;;4.32;;
33413;SDS011;60055;41.884;12.534;2023-08-21T13:20:59;5.55;;;4.07;;
33413;SDS011;60055;41.884;12.534;2023-08-21T13:23:24;5.68;;;4.18;;
33413;SDS011;60055;41.884;12.534;2023-08-21T13:25:50;10.15;;;5.97;;
33413;SDS011;60055;41.884;12.534;2023-08-21T13:28:15;8.45;;;4.45;;
33413;SDS011;60055;41.884;12.534;2023-08-21T13:30:41;6.95;;;4.70;;
33413;SDS011;60055;41.884;12.534;2023-08-21T13:33:07;6.93;;;4.75;;
33413;SDS011;60055;41.884;12.534;2023-08-21T13:35:32;6.55;;;4.53;;
33413;SDS011;60055;41.884;12.534;2023-08-21T13:37:58;9.45;;;4.80;;
33413;SDS011;60055;41.884;12.534;2023-08-21T13:40:24;10.48;;;4.93;;
33413;SDS011;60055;41.884;12.534;2023-08-21T13:42:49;6.55;;;4.88;;
33413;SDS011;60055;41.884;12.534;2023-08-21T13:45:18;5.70;;;4.47;;
33413;SDS011;60055;41.884;12.534;2023-08-21T13:47:45;6.43;;;4.00;;
33413;SDS011;60055;41.884;12.534;2023-08-21T13:50:16;7.65;;;4.15;;
33413;SDS011;60055;41.884;12.534;2023-08-21T13:52:43;5.97;;;4.30;;
33413;SDS011;60055;41.884;12.534;2023-08-21T13:55:13;7.32;;;4.95;;
33413;SDS011;60055;41.884;12.534;2023-08-21T13:57:39;13.70;;;5.60;;
33413;SDS011;60055;41.884;12.534;2023-08-21T14:00:05;9.75;;;6.75;;
33413;SDS011;60055;41.884;12.534;2023-08-21T14:02:37;12.65;;;6.47;;
33413;SDS011;60055;41.884;12.534;2023-08-21T14:05:03;11.52;;;5.70;;
33413;SDS011;60055;41.884;12.534;2023-08-21T14:07:30;11.80;;;5.53;;
33413;SDS011;60055;41.884;12.534;2023-08-21T14:09:56;10.82;;;5.82;;
33413;SDS011;60055;41.884;12.534;2023-08-21T14:12:21;11.77;;;6.32;;
33413;SDS011;60055;41.884;12.534;2023-08-21T14:14:47;8.75;;;6.10;;
33413;SDS011;60055;41.884;12.534;2023-08-21T14:17:12;7.90;;;6.20;;
33413;SDS011;60055;41.884;12.534;2023-08-21T14:19:38;8.93;;;5.93;;
33413;SDS011;60055;41.884;12.534;2023-08-21T14:22:03;8.55;;;5.50;;
33413;SDS011;60055;41.884;12.534;2023-08-21T14:24:29;12.95;;;5.38;;
33413;SDS011;60055;41.884;12.534;2023-08-21T14:26:55;8.75;;;5.25;;
33413;SDS011;60055;41.884;12.534;2023-08-21T14:29:21;11.65;;;5.20;;
33413;SDS011;60055;41.884;12.534;2023-08-21T14:31:46;8.10;;;5.10;;
33413;SDS011;60055;41.884;12.534;2023-08-21T14:34:13;10.50;;;5.15;;